createdAt,value
2022-09-14T00:00:29.961Z,16.23
2022-09-14T00:02:59.426Z,26.80
2022-09-14T00:05:28.754Z,23.48
2022-09-14T00:07:57.942Z,21.05
2022-09-14T00:10:27.115Z,23.33
2022-09-14T00:12:56.368Z,23.70
2022-09-14T00:15:25.628Z,20.10
2022-09-14T00:17:54.830Z,27.60
2022-09-14T00:20:24.125Z,24.15
2022-09-14T00:22:53.329Z,17.17
2022-09-14T00:25:22.563Z,18.30
2022-09-14T00:27:51.840Z,20.85
2022-09-14T00:30:22.203Z,13.43
2022-09-14T00:32:53.075Z,22.35
2022-09-14T00:35:22.344Z,25.33
2022-09-14T00:37:52.570Z,15.90
2022-09-14T00:40:22.079Z,23.58
2022-09-14T00:42:51.883Z,30.63
2022-09-14T00:45:23.977Z,25.88
2022-09-14T00:47:56.506Z,20.42
2022-09-14T00:50:25.885Z,24.25
2022-09-14T00:52:56.501Z,16.20
2022-09-14T00:55:25.996Z,17.25
2022-09-14T00:57:56.545Z,25.25
2022-09-14T01:00:29.954Z,21.13
2022-09-14T01:02:59.705Z,16.80
2022-09-14T01:06:11.832Z,18.60
2022-09-14T01:09:20.731Z,16.60
2022-09-14T01:12:26.540Z,13.98
2022-09-14T01:15:44.362Z,11.48
2022-09-14T01:21:14.838Z,12.48
2022-09-14T01:24:25.090Z,10.80
2022-09-14T01:27:45.301Z,20.50
2022-09-14T01:30:21.942Z,22.40
2022-09-14T01:33:28.357Z,15.68
2022-09-14T01:36:02.903Z,13.73
2022-09-14T01:38:51.407Z,10.57
2022-09-14T01:41:30.309Z,13.85
2022-09-14T01:44:24.523Z,15.73
2022-09-14T01:47:07.878Z,8.75
2022-09-14T01:49:48.870Z,5.65
2022-09-14T01:52:27.872Z,16.63
2022-09-14T01:55:25.548Z,11.88
2022-09-14T01:58:10.968Z,9.98
2022-09-14T02:00:49.583Z,20.83
2022-09-14T02:03:29.450Z,10.70
2022-09-14T02:06:17.243Z,9.82
2022-09-14T02:08:46.484Z,10.43
2022-09-14T02:11:15.734Z,6.38
2022-09-14T02:13:45.124Z,8.45
2022-09-14T02:16:14.852Z,10.93
2022-09-14T02:18:44.692Z,11.93
2022-09-14T02:21:29.052Z,8.48
2022-09-14T02:24:01.646Z,8.05
2022-09-14T02:26:31.460Z,11.50
2022-09-14T02:29:01.015Z,6.10
2022-09-14T02:32:00.144Z,13.95
2022-09-14T02:35:07.486Z,8.38
2022-09-14T02:38:17.358Z,9.75
2022-09-14T02:41:18.488Z,10.32
2022-09-14T02:44:06.622Z,12.88
2022-09-14T02:50:13.342Z,10.45
2022-09-14T02:52:59.247Z,13.15
2022-09-14T02:55:37.683Z,15.98
2022-09-14T02:58:11.493Z,16.13
2022-09-14T03:00:47.729Z,13.63
2022-09-14T03:03:21.621Z,10.48
2022-09-14T03:05:50.963Z,16.75
2022-09-14T03:08:20.173Z,7.93
2022-09-14T03:10:49.369Z,8.27
2022-09-14T03:13:18.728Z,12.48
2022-09-14T03:15:48.128Z,12.55
2022-09-14T03:18:17.831Z,11.65
2022-09-14T03:20:47.022Z,9.25
2022-09-14T03:23:16.543Z,20.73
2022-09-14T03:25:46.817Z,16.63
2022-09-14T03:28:16.003Z,20.60
2022-09-14T03:30:45.231Z,21.08
2022-09-14T03:33:16.474Z,15.90
2022-09-14T03:35:45.606Z,19.58
2022-09-14T03:38:14.732Z,15.30
2022-09-14T03:40:44.057Z,16.60
2022-09-14T03:43:14.642Z,17.52
2022-09-14T03:45:44.221Z,16.70
2022-09-14T03:48:16.472Z,26.33
2022-09-14T03:50:45.809Z,43.75
2022-09-14T03:53:15.103Z,50.97
2022-09-14T03:55:44.355Z,27.25
2022-09-14T03:58:13.581Z,29.05
2022-09-14T04:00:42.801Z,19.05
2022-09-14T04:03:12.743Z,15.75
2022-09-14T04:05:42.040Z,17.88
2022-09-14T04:08:11.294Z,13.27
2022-09-14T04:10:42.050Z,19.13
2022-09-14T04:13:11.296Z,28.02
2022-09-14T04:15:40.493Z,23.70
2022-09-14T04:18:09.928Z,24.65
2022-09-14T04:20:39.322Z,27.10
2022-09-14T04:23:08.519Z,23.23
2022-09-14T04:25:37.759Z,23.42
2022-09-14T04:28:20.052Z,28.67
2022-09-14T04:31:02.777Z,27.13
2022-09-14T04:33:35.363Z,44.92
2022-09-14T04:36:15.052Z,21.77
2022-09-14T04:38:45.381Z,51.30
2022-09-14T04:41:21.633Z,6.47
2022-09-14T04:43:54.098Z,44.30
2022-09-14T04:46:27.924Z,38.92
2022-09-14T04:48:57.411Z,9.02
2022-09-14T04:51:30.580Z,10.73
2022-09-14T04:54:02.422Z,15.63
2022-09-14T04:56:37.993Z,13.35
2022-09-14T04:59:08.130Z,14.35
2022-09-14T05:01:42.272Z,11.65
2022-09-14T05:04:13.158Z,11.32
2022-09-14T05:06:45.421Z,9.65
2022-09-14T05:09:20.130Z,9.85
2022-09-14T05:11:52.803Z,9.93
2022-09-14T05:14:22.039Z,10.18
2022-09-14T05:16:51.352Z,6.43
2022-09-14T05:19:20.715Z,8.70
2022-09-14T05:21:50.004Z,11.55
2022-09-14T05:24:20.774Z,29.67
2022-09-14T05:26:56.056Z,13.75
2022-09-14T05:29:30.529Z,10.23
2022-09-14T05:32:00.154Z,9.63
2022-09-14T05:34:29.375Z,9.82
2022-09-14T05:36:58.691Z,7.72
2022-09-14T05:39:27.847Z,10.77
2022-09-14T05:41:56.997Z,8.07
2022-09-14T05:44:26.222Z,8.38
2022-09-14T05:46:55.414Z,13.32
2022-09-14T05:49:26.389Z,9.70
2022-09-14T05:51:55.606Z,17.52
2022-09-14T05:54:24.822Z,10.93
2022-09-14T05:56:54.047Z,14.10
2022-09-14T05:59:23.310Z,6.57
2022-09-14T06:01:52.548Z,12.85
2022-09-14T06:04:21.828Z,9.75
2022-09-14T06:07:07.948Z,6.38
2022-09-14T06:09:40.212Z,22.90
2022-09-14T06:12:09.819Z,23.92
2022-09-14T06:14:38.966Z,12.45
2022-09-14T06:17:08.375Z,14.50
2022-09-14T06:19:37.525Z,15.98
2022-09-14T06:22:06.783Z,21.67
2022-09-14T06:24:36.874Z,11.13
2022-09-14T06:27:06.277Z,15.40
2022-09-14T06:29:35.455Z,8.15
2022-09-14T06:32:05.141Z,16.92
2022-09-14T06:34:34.358Z,14.13
2022-09-14T06:37:03.772Z,12.77
2022-09-14T06:39:32.933Z,13.45
2022-09-14T06:42:02.136Z,19.52
2022-09-14T06:44:31.609Z,9.98
2022-09-14T06:47:01.100Z,10.43
2022-09-14T06:49:30.393Z,19.40
2022-09-14T06:52:01.946Z,17.48
2022-09-14T06:54:31.388Z,17.65
2022-09-14T06:57:00.746Z,19.38
2022-09-14T06:59:30.112Z,16.83
2022-09-14T07:01:59.342Z,15.70
2022-09-14T07:04:28.487Z,15.98
2022-09-14T07:06:57.749Z,13.00
2022-09-14T07:09:26.997Z,16.40
2022-09-14T07:11:56.405Z,15.40
2022-09-14T07:14:30.337Z,9.35
2022-09-14T07:17:01.378Z,10.20
2022-09-14T07:19:30.693Z,16.35
2022-09-14T07:21:59.903Z,14.82
2022-09-14T07:24:29.431Z,13.27
2022-09-14T07:26:59.066Z,20.63
2022-09-14T07:29:28.349Z,14.25
2022-09-14T07:31:57.685Z,18.67
2022-09-14T07:34:27.105Z,15.02
2022-09-14T07:36:56.232Z,9.90
2022-09-14T07:39:25.475Z,17.33
2022-09-14T07:41:54.748Z,13.52
2022-09-14T07:44:24.278Z,8.38
2022-09-14T07:46:53.468Z,9.90
2022-09-14T07:49:23.403Z,14.45
2022-09-14T07:51:54.512Z,6.38
2022-09-14T07:54:23.771Z,11.82
2022-09-14T07:56:52.970Z,9.45
2022-09-14T07:59:38.234Z,14.55
2022-09-14T08:02:12.167Z,5.85
2022-09-14T08:04:41.584Z,12.13
2022-09-14T08:07:11.198Z,22.35
2022-09-14T08:09:40.804Z,6.22
2022-09-14T08:12:10.032Z,11.45
2022-09-14T08:14:39.189Z,6.43
2022-09-14T08:17:08.677Z,16.70
2022-09-14T08:19:38.560Z,11.52
2022-09-14T08:22:07.940Z,14.45
2022-09-14T08:24:37.194Z,11.63
2022-09-14T08:27:06.452Z,7.20
2022-09-14T08:29:35.688Z,19.17
2022-09-14T08:32:05.048Z,7.45
2022-09-14T08:34:34.593Z,14.95
2022-09-14T08:37:04.037Z,17.27
2022-09-14T08:39:33.151Z,13.68
2022-09-14T08:42:03.640Z,12.38
2022-09-14T08:44:56.430Z,15.60
2022-09-14T08:47:35.424Z,16.40
2022-09-14T08:50:19.628Z,15.13
2022-09-14T08:52:55.969Z,13.85
2022-09-14T08:55:52.757Z,17.60
2022-09-14T08:59:06.013Z,26.48
2022-09-14T09:02:21.615Z,18.05
2022-09-14T09:05:31.299Z,16.63
2022-09-14T09:08:32.727Z,13.25
2022-09-14T09:11:06.729Z,17.33
2022-09-14T09:13:41.886Z,18.50
2022-09-14T09:16:14.818Z,21.65
2022-09-14T09:19:03.840Z,31.30
2022-09-14T09:21:46.647Z,9.52
2022-09-14T09:24:41.781Z,20.05
2022-09-14T09:27:16.076Z,25.98
2022-09-14T09:29:48.589Z,7.40
2022-09-14T09:32:27.503Z,25.08
2022-09-14T09:34:57.060Z,35.45
2022-09-14T09:37:26.467Z,26.65
2022-09-14T09:39:55.984Z,23.33
2022-09-14T09:42:29.886Z,39.83
2022-09-14T09:45:04.470Z,33.75
2022-09-14T09:47:43.234Z,21.05
2022-09-14T09:50:23.214Z,43.58
2022-09-14T09:53:02.087Z,21.75
2022-09-14T09:55:41.766Z,20.92
2022-09-14T09:58:30.563Z,19.55
2022-09-14T10:01:23.148Z,19.45
2022-09-14T10:04:32.048Z,16.13
2022-09-14T10:07:01.606Z,9.98
2022-09-14T10:09:31.042Z,18.50
2022-09-14T10:12:06.592Z,34.13
2022-09-14T10:14:41.442Z,25.30
2022-09-14T10:17:26.628Z,15.52
2022-09-14T10:19:57.131Z,17.13
2022-09-14T10:22:36.289Z,11.57
2022-09-14T10:25:28.947Z,13.73
2022-09-14T10:28:03.145Z,25.13
2022-09-14T10:30:54.835Z,28.25
2022-09-14T10:33:24.910Z,34.17
2022-09-14T10:36:17.525Z,21.17
2022-09-14T10:39:15.372Z,15.13
2022-09-14T10:42:18.847Z,25.17
2022-09-14T10:45:24.811Z,15.65
2022-09-14T10:48:21.444Z,15.13
2022-09-14T10:51:42.210Z,23.95
2022-09-14T10:54:58.363Z,13.85
2022-09-14T10:58:10.786Z,18.73
2022-09-14T11:01:15.748Z,35.03
2022-09-14T11:04:20.868Z,28.30
2022-09-14T11:07:23.600Z,38.83
2022-09-14T11:10:39.685Z,14.55
2022-09-14T11:13:39.982Z,25.33
2022-09-14T11:17:00.160Z,30.98
2022-09-14T11:20:09.695Z,34.65
2022-09-14T11:23:19.982Z,26.27
2022-09-14T11:26:15.632Z,17.00
2022-09-14T11:29:09.606Z,18.90
2022-09-14T11:32:20.313Z,21.40
2022-09-14T11:35:16.814Z,18.42
2022-09-14T11:38:04.459Z,26.60
2022-09-14T11:40:53.456Z,27.90
2022-09-14T11:43:48.708Z,37.65
2022-09-14T11:46:44.043Z,37.28
2022-09-14T11:50:01.404Z,22.23
2022-09-14T11:52:35.077Z,16.33
2022-09-14T11:55:12.059Z,18.42
2022-09-14T11:57:41.501Z,12.20
2022-09-14T12:00:38.812Z,10.93
2022-09-14T12:03:23.790Z,38.30
2022-09-14T12:05:53.124Z,27.70
2022-09-14T12:08:42.358Z,17.80
2022-09-14T12:11:34.229Z,21.05
2022-09-14T12:14:37.550Z,23.67
2022-09-14T12:17:39.304Z,19.80
2022-09-14T12:21:00.962Z,20.30
2022-09-14T12:23:54.278Z,13.57
2022-09-14T12:26:36.081Z,16.98
2022-09-14T12:29:34.924Z,23.35
2022-09-14T12:32:25.221Z,17.10
2022-09-14T12:35:46.425Z,18.27
2022-09-14T12:39:02.082Z,13.52
2022-09-14T12:42:25.357Z,27.23
2022-09-14T12:44:56.375Z,22.30
2022-09-14T12:47:52.489Z,28.92
2022-09-14T12:50:24.067Z,15.15
2022-09-14T12:53:31.118Z,16.38
2022-09-14T12:56:47.234Z,22.83
2022-09-14T13:00:15.531Z,16.88
2022-09-14T13:03:21.741Z,21.17
2022-09-14T13:05:52.167Z,26.05
2022-09-14T13:08:26.453Z,16.08
2022-09-14T13:10:55.960Z,15.88
2022-09-14T13:13:33.134Z,12.25
2022-09-14T13:16:09.362Z,11.27
2022-09-14T13:18:39.834Z,15.13
2022-09-14T13:21:25.071Z,12.60
2022-09-14T13:23:55.584Z,13.82
2022-09-14T13:26:35.283Z,11.45
2022-09-14T13:29:09.126Z,12.00
2022-09-14T13:31:41.597Z,7.07
2022-09-14T13:34:24.487Z,10.38
2022-09-14T13:36:55.774Z,15.60
2022-09-14T13:39:38.427Z,9.95
2022-09-14T13:42:08.931Z,9.55
2022-09-14T13:44:46.363Z,7.25
2022-09-14T13:47:20.009Z,9.83
2022-09-14T13:49:52.047Z,8.93
2022-09-14T13:53:00.078Z,17.77
2022-09-14T13:55:45.767Z,6.53
2022-09-14T13:58:23.428Z,8.18
2022-09-14T14:01:05.510Z,6.72
2022-09-14T14:03:50.980Z,9.45
2022-09-14T14:07:21.547Z,5.80
2022-09-14T14:10:00.756Z,8.38
2022-09-14T14:12:40.814Z,10.60
2022-09-14T14:15:47.869Z,5.45
2022-09-14T14:18:43.827Z,4.75
2022-09-14T14:21:34.644Z,6.20
2022-09-14T14:24:28.600Z,21.52
2022-09-14T14:26:59.551Z,13.75
2022-09-14T14:29:28.920Z,20.35
2022-09-14T14:32:07.182Z,10.48
2022-09-14T14:37:06.067Z,11.32
2022-09-14T14:39:35.247Z,6.43
2022-09-14T14:42:05.230Z,6.30
2022-09-14T14:44:36.259Z,7.88
2022-09-14T14:47:08.064Z,7.60
2022-09-14T14:49:40.317Z,6.85
2022-09-14T14:52:11.927Z,4.30
2022-09-14T14:54:43.282Z,5.47
2022-09-14T14:57:12.612Z,5.20
2022-09-14T14:59:41.809Z,7.15
2022-09-14T15:02:11.294Z,10.32
2022-09-14T15:04:40.575Z,6.65
2022-09-14T15:07:10.398Z,10.60
2022-09-14T15:09:39.542Z,8.90
2022-09-14T15:12:09.672Z,7.57
2022-09-14T15:14:38.779Z,5.43
2022-09-14T15:17:07.986Z,5.15
2022-09-14T15:19:37.174Z,6.25
2022-09-14T15:22:06.556Z,7.95
2022-09-14T15:24:35.695Z,7.57
2022-09-14T15:27:06.628Z,7.93
2022-09-14T15:29:35.816Z,7.38
2022-09-14T15:32:05.233Z,9.10
2022-09-14T15:34:34.424Z,14.80
2022-09-14T15:37:03.858Z,9.30
2022-09-14T15:39:33.785Z,6.63
2022-09-14T15:42:03.978Z,12.27
2022-09-14T15:44:35.150Z,8.57
2022-09-14T15:47:04.938Z,8.88
2022-09-14T15:49:34.189Z,11.88
2022-09-14T15:52:03.892Z,9.20
2022-09-14T15:54:38.887Z,9.45
2022-09-14T15:57:12.246Z,10.10
2022-09-14T15:59:41.823Z,10.38
2022-09-14T16:02:14.087Z,9.13
2022-09-14T16:04:43.354Z,9.48
2022-09-14T16:07:12.632Z,7.07
2022-09-14T16:09:43.280Z,14.25
2022-09-14T16:12:14.946Z,5.15
2022-09-14T16:14:44.178Z,10.70
2022-09-14T16:17:13.439Z,9.95
2022-09-14T16:19:42.604Z,8.70
2022-09-14T16:22:12.164Z,6.10
2022-09-14T16:24:41.487Z,9.82
2022-09-14T16:27:10.720Z,7.93
2022-09-14T16:29:41.444Z,6.45
2022-09-14T16:32:10.736Z,7.28
2022-09-14T16:34:41.760Z,11.05
2022-09-14T16:37:11.008Z,9.43
2022-09-14T16:39:40.193Z,11.25
2022-09-14T16:42:12.300Z,7.20
2022-09-14T16:44:42.274Z,6.05
2022-09-14T16:47:11.975Z,6.25
2022-09-14T16:49:41.324Z,6.80
2022-09-14T16:52:13.678Z,9.95
2022-09-14T16:54:42.889Z,10.38
2022-09-14T16:57:17.772Z,9.40
2022-09-14T16:59:47.011Z,7.82
2022-09-14T17:02:18.561Z,11.25
2022-09-14T17:04:47.922Z,8.55
2022-09-14T17:07:17.223Z,6.05
2022-09-14T17:09:46.442Z,11.45
2022-09-14T17:12:15.701Z,11.90
2022-09-14T17:14:44.926Z,13.60
2022-09-14T17:17:14.076Z,7.78
2022-09-14T17:19:43.825Z,6.30
2022-09-14T17:22:14.817Z,6.45
2022-09-14T17:24:43.931Z,7.10
2022-09-14T17:27:13.181Z,7.10
2022-09-14T17:29:42.412Z,11.38
2022-09-14T17:32:14.809Z,8.23
2022-09-14T17:34:44.594Z,9.65
2022-09-14T17:37:13.798Z,7.28
2022-09-14T17:39:43.054Z,13.80
2022-09-14T17:42:12.353Z,16.98
2022-09-14T17:44:42.026Z,11.77
2022-09-14T17:47:11.250Z,6.35
2022-09-14T17:49:40.502Z,6.65
2022-09-14T17:52:09.703Z,8.30
2022-09-14T17:54:38.948Z,11.77
2022-09-14T17:57:08.187Z,8.05
2022-09-14T17:59:37.431Z,12.68
2022-09-14T18:02:07.571Z,10.93
2022-09-14T18:04:36.817Z,9.32
2022-09-14T18:07:06.876Z,8.43
2022-09-14T18:09:36.150Z,10.07
2022-09-14T18:12:05.871Z,7.57
2022-09-14T18:14:35.082Z,26.08
2022-09-14T18:17:04.642Z,6.72
2022-09-14T18:19:33.991Z,11.75
2022-09-14T18:22:03.214Z,6.43
2022-09-14T18:24:32.696Z,9.77
2022-09-14T18:27:02.149Z,9.38
2022-09-14T18:29:32.641Z,9.30
2022-09-14T18:32:01.815Z,5.85
2022-09-14T18:34:31.738Z,9.85
2022-09-14T18:37:00.983Z,7.32
2022-09-14T18:39:30.320Z,6.60
2022-09-14T18:41:59.980Z,8.80
2022-09-14T18:44:29.757Z,6.78
2022-09-14T18:46:59.634Z,8.50
2022-09-14T18:49:28.900Z,10.18
2022-09-14T18:51:58.190Z,7.82
2022-09-14T18:54:27.934Z,7.90
2022-09-14T18:57:00.251Z,7.60
2022-09-14T18:59:29.488Z,7.20
2022-09-14T19:01:58.683Z,7.18
2022-09-14T19:04:28.176Z,6.85
2022-09-14T19:06:57.544Z,6.35
2022-09-14T19:09:26.908Z,7.32
2022-09-14T19:11:56.291Z,5.72
2022-09-14T19:14:25.505Z,5.20
2022-09-14T19:17:00.398Z,7.65
2022-09-14T19:19:29.674Z,8.18
2022-09-14T19:21:58.933Z,9.98
2022-09-14T19:24:31.770Z,7.18
2022-09-14T19:27:01.267Z,9.43
2022-09-14T19:29:30.528Z,6.82
2022-09-14T19:32:00.978Z,6.05
2022-09-14T19:34:30.603Z,12.68
2022-09-14T19:36:59.837Z,8.98
2022-09-14T19:39:29.353Z,6.82
2022-09-14T19:41:58.660Z,10.43
2022-09-14T19:44:29.425Z,7.47
2022-09-14T19:46:58.543Z,5.32
2022-09-14T19:49:28.546Z,4.95
2022-09-14T19:51:57.873Z,9.43
2022-09-14T19:54:27.137Z,7.07
2022-09-14T19:56:56.286Z,8.05
2022-09-14T19:59:26.062Z,8.95
2022-09-14T20:01:55.428Z,8.20
2022-09-14T20:04:24.874Z,9.77
2022-09-14T20:06:54.026Z,14.70
2022-09-14T20:09:25.356Z,11.30
2022-09-14T20:11:55.690Z,7.70
2022-09-14T20:14:27.611Z,8.20
2022-09-14T20:17:00.293Z,11.00
2022-09-14T20:19:32.153Z,9.73
2022-09-14T20:22:01.353Z,5.80
2022-09-14T20:24:33.330Z,9.93
2022-09-14T20:27:04.198Z,11.93
2022-09-14T20:29:36.447Z,8.30
2022-09-14T20:32:07.220Z,5.80
2022-09-14T20:34:36.594Z,8.43
2022-09-14T20:37:05.958Z,6.50
2022-09-14T20:39:39.289Z,6.30
2022-09-14T20:42:08.684Z,7.93
2022-09-14T20:44:38.761Z,7.72
2022-09-14T20:47:08.131Z,9.95
2022-09-14T20:49:37.292Z,6.35
2022-09-14T20:52:06.457Z,5.97
2022-09-14T20:54:35.641Z,6.65
2022-09-14T20:57:04.893Z,10.85
2022-09-14T20:59:34.329Z,7.97
2022-09-14T21:02:05.550Z,8.52
2022-09-14T21:04:37.133Z,7.80
2022-09-14T21:07:07.085Z,10.40
2022-09-14T21:09:37.382Z,9.10
2022-09-14T21:12:06.818Z,13.82
2022-09-14T21:14:35.998Z,9.07
2022-09-14T21:17:05.195Z,10.63
2022-09-14T21:19:34.876Z,9.77
2022-09-14T21:22:04.092Z,9.05
2022-09-14T21:24:36.108Z,8.05
2022-09-14T21:27:06.222Z,8.85
2022-09-14T21:29:35.738Z,8.23
2022-09-14T21:32:08.896Z,8.55
2022-09-14T21:34:38.452Z,7.13
2022-09-14T21:37:07.766Z,11.95
2022-09-14T21:39:39.193Z,8.65
2022-09-14T21:42:09.013Z,7.93
2022-09-14T21:44:39.049Z,8.05
2022-09-14T21:47:08.439Z,9.70
2022-09-14T21:49:37.704Z,9.00
2022-09-14T21:52:06.978Z,9.10
2022-09-14T21:54:36.225Z,6.15
2022-09-14T21:57:05.600Z,9.45
2022-09-14T21:59:34.746Z,7.75
2022-09-14T22:02:04.062Z,8.20
2022-09-14T22:04:33.373Z,9.55
2022-09-14T22:07:02.500Z,7.45
2022-09-14T22:09:31.737Z,10.13
2022-09-14T22:12:01.294Z,8.70
2022-09-14T22:14:31.483Z,10.80
2022-09-14T22:17:00.763Z,8.77
2022-09-14T22:19:33.065Z,8.45
2022-09-14T22:22:02.355Z,8.00
2022-09-14T22:24:38.086Z,10.45
2022-09-14T22:27:12.054Z,13.20
2022-09-14T22:29:42.482Z,8.88
2022-09-14T22:32:13.100Z,9.27
2022-09-14T22:34:46.518Z,8.88
2022-09-14T22:37:18.231Z,8.90
2022-09-14T22:39:48.027Z,10.27
2022-09-14T22:42:17.187Z,12.73
2022-09-14T22:44:46.401Z,10.70
2022-09-14T22:47:16.126Z,9.55
2022-09-14T22:49:45.452Z,11.13
2022-09-14T22:52:14.735Z,9.52
2022-09-14T22:54:44.075Z,8.95
2022-09-14T22:57:13.230Z,12.15
2022-09-14T22:59:42.465Z,12.43
2022-09-14T23:02:11.836Z,14.10
2022-09-14T23:04:41.144Z,10.77
2022-09-14T23:07:10.390Z,17.73
2022-09-14T23:09:40.578Z,8.43
2022-09-14T23:12:09.792Z,11.77
2022-09-14T23:14:39.028Z,13.77
2022-09-14T23:17:08.373Z,12.98
2022-09-14T23:19:37.521Z,13.13
2022-09-14T23:22:06.736Z,17.48
2022-09-14T23:24:36.002Z,15.82
2022-09-14T23:27:05.514Z,18.48
2022-09-14T23:29:34.711Z,22.98
2022-09-14T23:32:04.739Z,13.43
2022-09-14T23:34:34.566Z,13.18
2022-09-14T23:37:03.913Z,17.15
2022-09-14T23:39:36.066Z,15.38
2022-09-14T23:42:05.485Z,13.73
2022-09-14T23:44:35.086Z,15.60
2022-09-14T23:47:05.009Z,15.93
2022-09-14T23:49:34.198Z,21.60
2022-09-14T23:52:04.016Z,24.98
2022-09-14T23:54:33.290Z,19.05
2022-09-14T23:57:02.515Z,22.45
2022-09-14T23:59:31.610Z,21.73
